createdAt,value
2023-05-10T00:01:43.738Z,2.58
2023-05-10T00:04:11.681Z,2.33
2023-05-10T00:06:40.039Z,2.40
2023-05-10T00:09:10.119Z,2.40
2023-05-10T00:11:38.044Z,2.83
2023-05-10T00:14:08.480Z,2.92
2023-05-10T00:16:36.474Z,2.40
2023-05-10T00:19:04.578Z,2.38
2023-05-10T00:21:33.222Z,2.28
2023-05-10T00:24:01.180Z,2.78
2023-05-10T00:26:30.478Z,2.50
2023-05-10T00:28:59.509Z,2.95
2023-05-10T00:31:27.528Z,2.65
2023-05-10T00:33:55.552Z,2.80
2023-05-10T00:36:23.428Z,2.67
2023-05-10T00:38:51.383Z,2.90
2023-05-10T00:41:19.530Z,2.80
2023-05-10T00:43:50.783Z,2.30
2023-05-10T00:46:18.820Z,2.65
2023-05-10T00:48:47.082Z,2.50
2023-05-10T00:51:15.716Z,2.22
2023-05-10T00:53:44.466Z,2.83
2023-05-10T00:56:12.497Z,2.65
2023-05-10T00:58:40.632Z,2.53
2023-05-10T01:01:11.007Z,2.72
2023-05-10T01:03:39.510Z,2.42
2023-05-10T01:06:08.075Z,2.83
2023-05-10T01:08:36.216Z,2.50
2023-05-10T01:11:04.277Z,3.10
2023-05-10T01:13:35.240Z,2.47
2023-05-10T01:16:04.238Z,2.85
2023-05-10T01:18:36.583Z,2.50
2023-05-10T01:21:15.487Z,2.67
2023-05-10T01:24:06.988Z,2.70
2023-05-10T01:27:13.504Z,2.65
2023-05-10T01:30:17.063Z,2.80
2023-05-10T01:32:51.365Z,3.03
2023-05-10T01:35:25.076Z,2.80
2023-05-10T01:38:06.481Z,3.30
2023-05-10T01:40:39.628Z,2.90
2023-05-10T01:43:21.720Z,2.47
2023-05-10T01:46:12.034Z,2.83
2023-05-10T01:48:49.397Z,2.50
2023-05-10T01:51:21.782Z,2.58
2023-05-10T01:53:50.736Z,2.78
2023-05-10T01:56:22.267Z,2.55
2023-05-10T01:58:51.907Z,2.63
2023-05-10T02:01:21.484Z,2.92
2023-05-10T02:03:52.787Z,2.75
2023-05-10T02:06:22.780Z,2.97
2023-05-10T02:08:53.516Z,2.63
2023-05-10T02:11:22.985Z,2.50
2023-05-10T02:13:53.912Z,2.58
2023-05-10T02:16:31.596Z,2.30
2023-05-10T02:19:03.359Z,2.67
2023-05-10T02:21:33.728Z,2.85
2023-05-10T02:24:05.551Z,3.05
2023-05-10T02:26:34.879Z,2.97
2023-05-10T02:29:05.117Z,2.45
2023-05-10T02:31:34.982Z,2.78
2023-05-10T02:34:06.422Z,2.25
2023-05-10T02:36:35.228Z,3.10
2023-05-10T02:39:04.362Z,2.65
2023-05-10T02:41:34.748Z,2.38
2023-05-10T02:44:04.743Z,2.33
2023-05-10T02:46:32.981Z,2.65
2023-05-10T02:49:01.112Z,3.03
2023-05-10T02:51:34.530Z,2.65
2023-05-10T02:54:11.390Z,2.97
2023-05-10T02:56:44.478Z,2.42
2023-05-10T02:59:12.411Z,3.10
2023-05-10T03:01:40.637Z,3.08
2023-05-10T03:04:08.713Z,2.80
2023-05-10T03:06:38.798Z,2.95
2023-05-10T03:09:08.762Z,2.72
2023-05-10T03:11:50.393Z,2.60
2023-05-10T03:14:30.863Z,2.40
2023-05-10T03:17:06.131Z,2.90
2023-05-10T03:19:42.009Z,2.78
2023-05-10T03:22:13.087Z,2.35
2023-05-10T03:24:43.176Z,2.58
2023-05-10T03:27:12.484Z,2.28
2023-05-10T03:29:41.593Z,2.55
2023-05-10T03:32:09.686Z,2.35
2023-05-10T03:34:43.717Z,3.13
2023-05-10T03:37:13.919Z,2.58
2023-05-10T03:39:42.571Z,3.00
2023-05-10T03:42:12.970Z,2.60
2023-05-10T03:44:41.353Z,2.40
2023-05-10T03:47:10.522Z,2.95
2023-05-10T03:49:38.546Z,3.28
2023-05-10T03:52:07.511Z,2.20
2023-05-10T03:54:38.241Z,2.63
2023-05-10T03:57:06.862Z,2.42
2023-05-10T03:59:34.820Z,2.10
2023-05-10T04:02:02.864Z,2.80
2023-05-10T04:04:31.535Z,2.47
2023-05-10T04:07:00.135Z,2.65
2023-05-10T04:09:28.030Z,2.70
2023-05-10T04:11:57.266Z,2.78
2023-05-10T04:14:25.558Z,2.17
2023-05-10T04:16:53.617Z,2.28
2023-05-10T04:19:21.628Z,2.58
2023-05-10T04:21:49.553Z,2.20
2023-05-10T04:24:17.406Z,2.33
2023-05-10T04:26:45.390Z,2.40
2023-05-10T04:29:14.646Z,2.38
2023-05-10T04:31:42.648Z,2.95
2023-05-10T04:34:10.573Z,2.45
2023-05-10T04:36:38.453Z,2.72
2023-05-10T04:39:06.604Z,2.05
2023-05-10T04:41:34.518Z,2.33
2023-05-10T04:44:02.546Z,2.63
2023-05-10T04:46:31.997Z,2.42
2023-05-10T04:49:00.046Z,2.60
2023-05-10T04:51:27.927Z,2.65
2023-05-10T04:54:05.424Z,2.22
2023-05-10T04:56:34.829Z,2.35
2023-05-10T04:59:02.766Z,2.08
2023-05-10T05:01:32.308Z,1.98
2023-05-10T05:04:00.725Z,2.20
2023-05-10T05:06:28.744Z,2.25
2023-05-10T05:08:56.710Z,2.25
2023-05-10T05:11:24.652Z,2.40
2023-05-10T05:13:52.554Z,2.30
2023-05-10T05:16:22.546Z,2.10
2023-05-10T05:18:52.005Z,2.22
2023-05-10T05:21:21.330Z,2.20
2023-05-10T05:23:49.298Z,6.93
2023-05-10T05:26:17.280Z,2.53
2023-05-10T05:28:45.257Z,2.30
2023-05-10T05:31:13.229Z,1.83
2023-05-10T05:33:41.323Z,2.03
2023-05-10T05:36:11.675Z,2.30
2023-05-10T05:38:39.581Z,2.10
2023-05-10T05:41:07.551Z,2.03
2023-05-10T05:43:38.048Z,1.70
2023-05-10T05:46:06.734Z,1.88
2023-05-10T05:48:34.781Z,2.08
2023-05-10T05:51:02.844Z,2.00
2023-05-10T05:53:33.344Z,1.98
2023-05-10T05:56:01.244Z,2.10
2023-05-10T05:58:29.670Z,2.20
2023-05-10T06:00:58.249Z,2.47
2023-05-10T06:03:26.455Z,2.13
2023-05-10T06:05:54.619Z,1.70
2023-05-10T06:08:22.548Z,1.95
2023-05-10T06:10:51.942Z,1.98
2023-05-10T06:13:19.964Z,1.52
2023-05-10T06:15:47.873Z,1.60
2023-05-10T06:18:15.838Z,1.65
2023-05-10T06:20:44.060Z,1.30
2023-05-10T06:23:12.097Z,1.23
2023-05-10T06:25:40.106Z,1.45
2023-05-10T06:28:09.484Z,1.35
2023-05-10T06:30:39.009Z,1.90
2023-05-10T06:33:07.022Z,3.20
2023-05-10T06:35:35.050Z,3.40
2023-05-10T06:38:03.017Z,1.65
2023-05-10T06:40:30.940Z,1.70
2023-05-10T06:42:58.851Z,1.02
2023-05-10T06:45:28.242Z,1.45
2023-05-10T06:47:56.325Z,2.30
2023-05-10T06:50:24.234Z,1.75
2023-05-10T06:52:53.187Z,2.05
2023-05-10T06:55:21.374Z,1.95
2023-05-10T06:57:49.515Z,1.52
2023-05-10T07:00:18.745Z,1.48
2023-05-10T07:02:49.472Z,1.60
2023-05-10T07:05:17.760Z,1.67
2023-05-10T07:07:45.945Z,1.95
2023-05-10T07:10:14.288Z,2.25
2023-05-10T07:12:42.472Z,2.88
2023-05-10T07:15:11.289Z,1.27
2023-05-10T07:17:39.286Z,1.67
2023-05-10T07:20:10.759Z,1.75
2023-05-10T07:22:38.676Z,1.38
2023-05-10T07:25:07.550Z,1.50
2023-05-10T07:27:35.551Z,1.73
2023-05-10T07:30:03.543Z,2.65
2023-05-10T07:32:32.747Z,2.22
2023-05-10T07:35:01.095Z,2.38
2023-05-10T07:37:31.319Z,4.63
2023-05-10T07:39:59.239Z,5.80
2023-05-10T07:42:27.160Z,2.88
2023-05-10T07:44:55.186Z,1.83
2023-05-10T07:47:23.183Z,2.10
2023-05-10T07:49:51.257Z,1.60
2023-05-10T07:52:21.212Z,1.58
2023-05-10T07:54:51.844Z,1.58
2023-05-10T07:57:20.037Z,2.03
2023-05-10T07:59:48.457Z,1.20
2023-05-10T08:02:16.535Z,2.60
2023-05-10T08:04:44.483Z,1.95
2023-05-10T08:07:12.733Z,1.73
2023-05-10T08:09:40.705Z,1.20
2023-05-10T08:12:10.031Z,1.60
2023-05-10T08:14:38.651Z,3.08
2023-05-10T08:17:09.146Z,6.63
2023-05-10T08:19:37.314Z,2.88
2023-05-10T08:22:06.557Z,2.90
2023-05-10T08:24:35.713Z,1.40
2023-05-10T08:27:04.008Z,1.60
2023-05-10T08:32:06.766Z,1.35
2023-05-10T08:34:34.830Z,1.60
2023-05-10T08:37:02.787Z,3.28
2023-05-10T08:39:32.342Z,2.65
2023-05-10T08:42:04.410Z,1.77
2023-05-10T08:44:34.689Z,1.42
2023-05-10T08:47:06.186Z,1.70
2023-05-10T08:49:35.663Z,1.27
2023-05-10T08:52:06.318Z,1.40
2023-05-10T08:54:35.075Z,1.63
2023-05-10T08:57:03.287Z,1.40
2023-05-10T08:59:32.944Z,1.50
2023-05-10T09:02:01.754Z,3.22
2023-05-10T09:04:31.495Z,1.92
2023-05-10T09:06:59.566Z,1.58
2023-05-10T09:09:27.856Z,1.35
2023-05-10T09:11:56.470Z,1.40
2023-05-10T09:14:26.898Z,1.38
2023-05-10T09:16:56.410Z,1.40
2023-05-10T09:19:24.453Z,1.55
2023-05-10T09:21:52.455Z,3.90
2023-05-10T09:24:20.387Z,4.03
2023-05-10T09:26:50.471Z,3.45
2023-05-10T09:29:18.624Z,3.45
2023-05-10T09:31:48.764Z,3.03
2023-05-10T09:34:22.707Z,2.47
2023-05-10T09:36:55.695Z,3.83
2023-05-10T09:39:32.730Z,3.40
2023-05-10T09:42:01.775Z,1.60
2023-05-10T09:44:29.824Z,1.98
2023-05-10T09:46:58.018Z,1.73
2023-05-10T09:49:27.392Z,1.60
2023-05-10T09:52:05.913Z,1.17
2023-05-10T09:54:34.869Z,1.63
2023-05-10T09:57:03.548Z,1.48
2023-05-10T09:59:32.111Z,1.33
2023-05-10T10:02:02.122Z,1.40
2023-05-10T10:04:32.677Z,2.00
2023-05-10T10:07:01.915Z,1.20
2023-05-10T10:09:32.450Z,1.00
2023-05-10T10:12:01.454Z,1.48
2023-05-10T10:14:29.767Z,1.10
2023-05-10T10:17:07.606Z,1.45
2023-05-10T10:19:38.464Z,1.45
2023-05-10T10:22:06.978Z,1.73
2023-05-10T10:24:35.198Z,1.67
2023-05-10T10:27:11.202Z,1.30
2023-05-10T10:29:46.773Z,1.17
2023-05-10T10:32:26.711Z,1.50
2023-05-10T10:34:57.074Z,1.23
2023-05-10T10:37:25.041Z,1.25
2023-05-10T10:39:53.025Z,1.40
2023-05-10T10:42:47.928Z,1.30
2023-05-10T10:45:16.225Z,1.50
2023-05-10T10:47:44.866Z,1.40
2023-05-10T10:50:14.581Z,1.20
2023-05-10T10:52:42.916Z,1.30
2023-05-10T10:55:12.645Z,1.48
2023-05-10T10:57:49.411Z,1.70
2023-05-10T11:00:23.974Z,1.50
2023-05-10T11:02:53.697Z,1.70
2023-05-10T11:05:47.199Z,1.30
2023-05-10T11:08:20.684Z,1.47
2023-05-10T11:11:04.376Z,2.20
2023-05-10T11:13:34.195Z,3.17
2023-05-10T11:16:13.335Z,1.77
2023-05-10T11:18:41.903Z,2.35
2023-05-10T11:21:12.483Z,2.90
2023-05-10T11:23:51.806Z,2.15
2023-05-10T11:26:24.261Z,1.80
2023-05-10T11:28:52.537Z,1.30
2023-05-10T11:31:21.730Z,1.60
2023-05-10T11:33:51.503Z,1.17
2023-05-10T11:36:22.699Z,1.38
2023-05-10T11:38:51.357Z,1.45
2023-05-10T11:41:22.739Z,1.40
2023-05-10T11:43:52.994Z,1.45
2023-05-10T11:46:22.571Z,1.80
2023-05-10T11:48:52.557Z,1.60
2023-05-10T11:51:24.281Z,1.77
2023-05-10T11:53:53.261Z,1.40
2023-05-10T11:56:21.867Z,1.35
2023-05-10T11:58:56.390Z,1.20
2023-05-10T12:01:24.869Z,1.90
2023-05-10T12:03:54.813Z,1.60
2023-05-10T12:06:28.299Z,1.17
2023-05-10T12:08:56.279Z,1.13
2023-05-10T12:11:27.388Z,1.15
2023-05-10T12:13:56.105Z,1.13
2023-05-10T12:16:25.213Z,3.30
2023-05-10T12:18:57.417Z,1.58
2023-05-10T12:21:27.728Z,2.10
2023-05-10T12:23:57.376Z,1.75
2023-05-10T12:26:27.350Z,1.67
2023-05-10T12:28:55.572Z,1.30
2023-05-10T12:31:23.584Z,1.23
2023-05-10T12:33:51.497Z,1.42
2023-05-10T12:36:28.517Z,1.38
2023-05-10T12:39:05.831Z,1.20
2023-05-10T12:41:33.819Z,1.27
2023-05-10T12:44:04.399Z,1.17
2023-05-10T12:46:32.718Z,1.65
2023-05-10T12:49:08.631Z,1.20
2023-05-10T12:51:38.667Z,1.15
2023-05-10T12:54:06.757Z,1.30
2023-05-10T12:56:34.719Z,1.00
2023-05-10T12:59:02.614Z,1.38
2023-05-10T13:01:30.610Z,1.50
2023-05-10T13:03:58.561Z,7.13
2023-05-10T13:06:26.505Z,1.45
2023-05-10T13:08:55.805Z,1.58
2023-05-10T13:11:23.818Z,1.42
2023-05-10T13:13:51.744Z,1.20
2023-05-10T13:16:19.809Z,1.10
2023-05-10T13:18:50.114Z,1.20
2023-05-10T13:21:18.110Z,1.25
2023-05-10T13:23:48.562Z,1.52
2023-05-10T13:26:17.907Z,1.30
2023-05-10T13:28:46.891Z,1.27
2023-05-10T13:31:14.844Z,1.20
2023-05-10T13:33:43.187Z,1.20
2023-05-10T13:36:12.296Z,1.20
2023-05-10T13:38:40.237Z,2.03
2023-05-10T13:41:08.278Z,1.20
2023-05-10T13:43:38.046Z,1.65
2023-05-10T13:46:06.205Z,1.30
2023-05-10T13:48:34.860Z,1.42
2023-05-10T13:51:04.364Z,1.63
2023-05-10T13:53:32.313Z,1.30
2023-05-10T13:56:00.213Z,1.15
2023-05-10T13:58:28.135Z,1.23
2023-05-10T14:00:58.142Z,1.30
2023-05-10T14:03:26.429Z,2.55
2023-05-10T14:05:54.382Z,1.40
2023-05-10T14:08:22.595Z,1.60
2023-05-10T14:10:51.639Z,3.15
2023-05-10T14:13:19.565Z,1.85
2023-05-10T14:15:47.498Z,1.40
2023-05-10T14:18:16.858Z,1.10
2023-05-10T14:20:44.842Z,1.00
2023-05-10T14:23:13.382Z,1.13
2023-05-10T14:25:42.205Z,1.75
2023-05-10T14:28:10.265Z,1.02
2023-05-10T14:30:38.351Z,1.00
2023-05-10T14:33:08.278Z,1.35
2023-05-10T14:35:38.610Z,1.35
2023-05-10T14:38:06.639Z,1.10
2023-05-10T14:40:34.648Z,1.35
2023-05-10T14:43:02.678Z,1.10
2023-05-10T14:45:30.848Z,1.17
2023-05-10T14:48:00.125Z,1.30
2023-05-10T14:50:36.537Z,1.27
2023-05-10T14:53:06.614Z,1.02
2023-05-10T14:55:35.663Z,1.00
2023-05-10T14:58:04.339Z,1.88
2023-05-10T15:00:33.616Z,1.42
2023-05-10T15:03:02.344Z,1.58
2023-05-10T15:05:30.908Z,1.63
2023-05-10T15:07:59.522Z,1.15
2023-05-10T15:10:28.835Z,1.30
2023-05-10T15:12:57.050Z,1.20
2023-05-10T15:15:25.119Z,1.80
2023-05-10T15:17:53.124Z,1.70
2023-05-10T15:20:21.132Z,1.40
2023-05-10T15:22:49.077Z,1.00
2023-05-10T15:25:17.385Z,0.93
2023-05-10T15:27:47.571Z,1.00
2023-05-10T15:30:15.973Z,1.65
2023-05-10T15:32:44.089Z,1.27
2023-05-10T15:35:12.631Z,1.50
2023-05-10T15:37:40.553Z,1.20
2023-05-10T15:40:09.232Z,1.50
2023-05-10T15:42:37.150Z,1.40
2023-05-10T15:45:10.035Z,1.20
2023-05-10T15:47:40.115Z,1.13
2023-05-10T15:50:08.536Z,1.48
2023-05-10T15:52:37.063Z,1.20
2023-05-10T15:55:12.469Z,1.38
2023-05-10T15:57:41.603Z,1.27
2023-05-10T16:00:13.193Z,1.30
2023-05-10T16:02:41.405Z,1.58
2023-05-10T16:05:10.817Z,1.20
2023-05-10T16:07:42.053Z,1.70
2023-05-10T16:10:11.748Z,1.38
2023-05-10T16:12:40.112Z,1.00
2023-05-10T16:15:09.882Z,1.23
2023-05-10T16:17:39.320Z,1.52
2023-05-10T16:20:08.679Z,1.45
2023-05-10T16:22:36.781Z,1.48
2023-05-10T16:25:05.259Z,1.30
2023-05-10T16:27:33.461Z,1.17
2023-05-10T16:30:01.657Z,1.30
2023-05-10T16:32:29.805Z,1.35
2023-05-10T16:35:00.126Z,1.50
2023-05-10T16:37:28.639Z,1.20
2023-05-10T16:39:56.571Z,1.40
2023-05-10T16:42:25.980Z,1.17
2023-05-10T16:44:55.395Z,1.00
2023-05-10T16:47:26.475Z,3.08
2023-05-10T16:49:54.410Z,1.90
2023-05-10T16:52:23.814Z,2.05
2023-05-10T16:54:51.739Z,2.63
2023-05-10T16:57:19.711Z,1.80
2023-05-10T16:59:47.986Z,2.10
2023-05-10T17:02:16.845Z,2.13
2023-05-10T17:04:44.769Z,2.42
2023-05-10T17:07:13.169Z,2.95
2023-05-10T17:09:43.301Z,2.67
2023-05-10T17:12:12.471Z,2.20
2023-05-10T17:14:40.977Z,2.17
2023-05-10T17:17:10.670Z,2.65
2023-05-10T17:19:38.565Z,2.97
2023-05-10T17:22:06.591Z,2.70
2023-05-10T17:24:34.504Z,2.30
2023-05-10T17:27:04.358Z,2.85
2023-05-10T17:29:32.509Z,3.17
2023-05-10T17:32:00.763Z,2.58
2023-05-10T17:34:28.938Z,2.60
2023-05-10T17:36:57.379Z,2.80
2023-05-10T17:39:25.340Z,3.08
2023-05-10T17:41:53.258Z,3.80
2023-05-10T17:44:22.904Z,2.60
2023-05-10T17:46:50.840Z,2.95
2023-05-10T17:49:18.843Z,4.07
2023-05-10T17:51:48.018Z,3.85
2023-05-10T17:54:16.218Z,2.80
2023-05-10T17:56:44.154Z,2.70
2023-05-10T17:59:12.145Z,2.60
2023-05-10T18:01:41.668Z,2.55
2023-05-10T18:04:09.694Z,3.10
2023-05-10T18:06:38.125Z,2.80
2023-05-10T18:09:07.262Z,5.90
2023-05-10T18:11:36.774Z,2.65
2023-05-10T18:14:04.947Z,7.43
2023-05-10T18:16:32.904Z,2.67
2023-05-10T18:19:02.351Z,3.00
2023-05-10T18:21:31.256Z,2.97
2023-05-10T18:23:59.219Z,2.88
2023-05-10T18:26:27.731Z,2.97
2023-05-10T18:28:55.673Z,3.22
2023-05-10T18:31:23.982Z,2.95
2023-05-10T18:33:52.246Z,2.67
2023-05-10T18:36:23.637Z,2.90
2023-05-10T18:38:51.589Z,2.83
2023-05-10T18:41:19.608Z,2.60
2023-05-10T18:43:47.570Z,2.67
2023-05-10T18:46:16.022Z,2.90
2023-05-10T18:48:44.058Z,3.00
2023-05-10T18:51:12.470Z,3.05
2023-05-10T18:53:41.892Z,2.63
2023-05-10T18:56:10.025Z,3.13
2023-05-10T18:58:38.362Z,3.63
2023-05-10T19:01:06.446Z,3.28
2023-05-10T19:03:34.360Z,3.00
2023-05-10T19:06:02.330Z,2.92
2023-05-10T19:08:30.383Z,3.30
2023-05-10T19:10:59.766Z,4.00
2023-05-10T19:13:30.212Z,3.05
2023-05-10T19:16:05.909Z,3.33
2023-05-10T19:18:34.386Z,3.13
2023-05-10T19:21:04.513Z,3.33
2023-05-10T19:23:33.104Z,3.30
2023-05-10T19:26:02.700Z,4.00
2023-05-10T19:28:30.681Z,3.15
2023-05-10T19:30:58.846Z,3.95
2023-05-10T19:33:26.901Z,3.50
2023-05-10T19:35:56.304Z,3.22
2023-05-10T19:38:25.109Z,3.08
2023-05-10T19:40:57.918Z,2.67
2023-05-10T19:43:28.274Z,2.70
2023-05-10T19:45:56.708Z,3.15
2023-05-10T19:48:24.742Z,3.53
2023-05-10T19:50:52.852Z,3.28
2023-05-10T19:53:21.526Z,3.10
2023-05-10T19:55:49.602Z,3.80
2023-05-10T19:58:17.852Z,3.33
2023-05-10T20:00:47.260Z,4.13
2023-05-10T20:03:15.311Z,3.30
2023-05-10T20:05:43.294Z,4.93
2023-05-10T20:08:11.496Z,3.20
2023-05-10T20:10:39.481Z,3.25
2023-05-10T20:13:07.752Z,4.30
2023-05-10T20:15:35.766Z,3.80
2023-05-10T20:18:05.473Z,4.00
2023-05-10T20:20:33.459Z,3.67
2023-05-10T20:23:01.494Z,3.75
2023-05-10T20:25:29.671Z,3.28
2023-05-10T20:27:57.757Z,3.65
2023-05-10T20:30:25.736Z,3.63
2023-05-10T20:32:53.812Z,3.72
2023-05-10T20:35:25.648Z,3.83
2023-05-10T20:37:53.912Z,3.88
2023-05-10T20:40:22.031Z,3.55
2023-05-10T20:42:51.983Z,3.72
2023-05-10T20:45:20.003Z,3.50
2023-05-10T20:47:48.104Z,3.83
2023-05-10T20:50:16.305Z,3.63
2023-05-10T20:52:45.731Z,4.22
2023-05-10T20:55:13.617Z,4.13
2023-05-10T20:57:41.613Z,3.97
2023-05-10T21:00:10.714Z,3.85
2023-05-10T21:02:38.693Z,4.20
2023-05-10T21:05:07.489Z,4.78
2023-05-10T21:07:35.391Z,5.28
2023-05-10T21:10:05.097Z,5.28
2023-05-10T21:12:33.179Z,5.30
2023-05-10T21:15:01.201Z,5.78
2023-05-10T21:17:35.909Z,5.03
2023-05-10T21:20:10.161Z,4.70
2023-05-10T21:22:47.516Z,4.72
2023-05-10T21:25:42.371Z,4.72
2023-05-10T21:28:18.752Z,5.22
2023-05-10T21:33:41.918Z,5.07
2023-05-10T21:36:10.075Z,5.32
2023-05-10T21:38:38.126Z,5.47
2023-05-10T21:41:09.697Z,5.63
2023-05-10T21:43:37.832Z,5.75
2023-05-10T21:46:07.160Z,5.90
2023-05-10T21:48:35.268Z,6.55
2023-05-10T21:51:03.559Z,5.85
2023-05-10T21:53:31.690Z,5.38
2023-05-10T21:55:59.561Z,5.63
2023-05-10T21:58:29.939Z,5.50
2023-05-10T22:00:57.968Z,5.93
2023-05-10T22:03:26.425Z,5.38
2023-05-10T22:05:54.385Z,5.38
2023-05-10T22:08:22.356Z,4.88
2023-05-10T22:10:50.328Z,5.40
2023-05-10T22:13:18.293Z,5.30
2023-05-10T22:15:47.687Z,5.65
2023-05-10T22:18:15.607Z,5.82
2023-05-10T22:20:46.372Z,5.35
2023-05-10T22:23:14.450Z,5.57
2023-05-10T22:25:42.595Z,6.00
2023-05-10T22:28:11.445Z,5.95
2023-05-10T22:30:39.404Z,5.75
2023-05-10T22:33:08.724Z,5.85
2023-05-10T22:35:36.825Z,6.03
2023-05-10T22:38:04.965Z,6.57
2023-05-10T22:40:33.029Z,5.93
2023-05-10T22:43:03.652Z,6.05
2023-05-10T22:45:32.443Z,6.20
2023-05-10T22:48:05.051Z,6.63
2023-05-10T22:50:36.768Z,6.55
2023-05-10T22:53:04.966Z,6.65
2023-05-10T22:55:33.030Z,5.88
2023-05-10T22:58:01.030Z,6.22
2023-05-10T23:00:28.917Z,6.32
2023-05-10T23:02:57.440Z,6.47
2023-05-10T23:05:25.358Z,5.68
2023-05-10T23:07:55.631Z,6.57
2023-05-10T23:10:23.767Z,5.93
2023-05-10T23:12:51.669Z,6.05
2023-05-10T23:15:19.747Z,6.88
2023-05-10T23:17:47.699Z,5.85
2023-05-10T23:20:16.168Z,6.45
2023-05-10T23:22:44.864Z,7.05
2023-05-10T23:25:14.555Z,6.30
2023-05-10T23:27:42.608Z,6.20
2023-05-10T23:30:11.504Z,6.15
2023-05-10T23:32:39.552Z,6.40
2023-05-10T23:35:08.857Z,5.70
2023-05-10T23:37:37.783Z,5.47
2023-05-10T23:40:06.673Z,6.30
2023-05-10T23:42:36.679Z,5.90
2023-05-10T23:45:05.167Z,6.20
2023-05-10T23:47:33.125Z,6.45
2023-05-10T23:50:01.426Z,6.28
2023-05-10T23:52:29.382Z,6.35
2023-05-10T23:54:57.418Z,5.80
2023-05-10T23:57:25.705Z,5.55
2023-05-10T23:59:55.322Z,7.60
